Time;durP1;ratioP1;P1;durP2;ratioP2;P2;SDS_P1;SDS_P2;PMS_P1;PMS_P2;Temp;Humidity;BMP_temperature;BMP_pressure;BME280_temperature;BME280_humidity;BME280_pressure;Samples;Min_cycle;Max_cycle;Signal;HPM_P1;HPM_P2
2021/01/05 00:00:22;;;;;;;21.77;4.38;;;11.60;99.90;;;;;;5051290;28;20366;-71
2021/01/05 00:02:51;;;;;;;26.17;4.53;;;11.50;99.90;;;;;;5052946;28;20025;-69
2021/01/05 00:05:18;;;;;;;29.23;5.43;;;11.40;99.90;;;;;;5051142;28;20469;-69
2021/01/05 00:07:45;;;;;;;28.73;5.35;;;11.40;99.90;;;;;;5051204;28;20021;-70
2021/01/05 00:10:12;;;;;;;34.30;5.38;;;11.30;99.90;;;;;;5050780;28;20029;-69
2021/01/05 00:12:39;;;;;;;23.02;4.22;;;11.30;99.90;;;;;;5049398;28;20029;-70
2021/01/05 00:15:08;;;;;;;26.15;5.53;;;11.30;99.90;;;;;;5051141;28;20032;-69
2021/01/05 00:17:36;;;;;;;37.03;6.00;;;11.30;99.90;;;;;;5050483;28;20044;-69
2021/01/05 00:20:14;;;;;;;24.50;4.03;;;11.60;99.90;;;;;;5051023;28;20099;-69
2021/01/05 00:22:41;;;;;;;30.52;5.35;;;11.50;99.90;;;;;;5050762;28;20028;-70
2021/01/05 00:25:10;;;;;;;27.45;6.40;;;11.30;99.90;;;;;;5050849;28;20025;-68
2021/01/05 00:27:38;;;;;;;33.15;5.05;;;11.20;99.90;;;;;;5053250;28;20025;-69
2021/01/05 00:30:17;;;;;;;36.53;4.82;;;11.10;99.90;;;;;;5054781;28;20461;-69
2021/01/05 00:32:48;;;;;;;28.13;5.80;;;11.20;99.90;;;;;;5053241;28;20048;-70
2021/01/05 00:35:20;;;;;;;35.03;7.15;;;11.10;99.90;;;;;;5054777;28;20021;-69
2021/01/05 00:37:51;;;;;;;20.00;3.90;;;11.00;99.90;;;;;;5054762;28;20040;-69
2021/01/05 00:40:19;;;;;;;;;;;11.00;99.90;;;;;;5058859;28;20041;-71
2021/01/05 00:42:47;;;;;;;29.63;5.22;;;10.90;99.90;;;;;;5054369;28;19904;-70
2021/01/05 00:45:26;;;;;;;26.65;4.25;;;10.90;99.90;;;;;;5070940;28;20024;-69
2021/01/05 00:47:53;;;;;;;22.45;4.90;;;10.90;99.90;;;;;;5054466;28;20388;-69
2021/01/05 00:50:21;;;;;;;28.58;4.13;;;10.80;99.90;;;;;;5057016;28;20022;-68
2021/01/05 00:52:48;;;;;;;25.17;4.32;;;10.80;99.90;;;;;;5072825;28;20028;-69
2021/01/05 00:55:15;;;;;;;23.58;5.30;;;10.70;99.90;;;;;;5072877;28;20024;-69
2021/01/05 00:57:44;;;;;;;18.20;3.85;;;10.70;99.90;;;;;;5055633;28;20485;-68
2021/01/05 01:00:21;;;;;;;30.42;4.70;;;10.70;99.90;;;;;;5067106;28;20071;-68
2021/01/05 01:02:49;;;;;;;26.42;4.30;;;10.60;99.90;;;;;;5074453;28;20028;-69
2021/01/05 01:05:16;;;;;;;26.88;3.75;;;10.60;99.90;;;;;;5072667;28;20091;-69
2021/01/05 01:07:43;;;;;;;32.95;5.05;;;10.60;99.90;;;;;;5074119;28;20173;-68
2021/01/05 01:10:11;;;;;;;23.88;6.05;;;10.50;99.90;;;;;;5062187;28;20025;-68
2021/01/05 01:12:38;;;;;;;25.08;4.45;;;10.40;99.90;;;;;;5053161;28;20029;-69
2021/01/05 01:15:06;;;;;;;27.20;4.45;;;10.40;99.90;;;;;;5054909;28;20040;-69
2021/01/05 01:17:33;;;;;;;29.70;4.28;;;10.40;99.90;;;;;;5054153;28;20025;-68
2021/01/05 01:20:00;;;;;;;22.45;3.45;;;10.40;99.90;;;;;;5054515;28;20029;-69
2021/01/05 01:22:27;;;;;;;23.90;5.05;;;10.30;99.90;;;;;;5053483;28;20041;-68
2021/01/05 01:24:54;;;;;;;24.48;4.40;;;10.30;99.90;;;;;;5063902;28;20028;-68
2021/01/05 01:27:21;;;;;;;21.67;3.53;;;10.30;99.90;;;;;;5072833;28;20036;-68
2021/01/05 01:29:48;;;;;;;27.27;4.43;;;10.30;99.90;;;;;;5056749;28;20084;-68
2021/01/05 01:32:16;;;;;;;21.20;4.70;;;10.30;99.90;;;;;;5053672;28;20036;-68
2021/01/05 01:34:43;;;;;;;32.85;4.55;;;10.30;99.90;;;;;;5053674;28;20025;-68
2021/01/05 01:37:14;;;;;;;23.35;4.00;;;10.20;99.90;;;;;;5052773;28;20523;-68
2021/01/05 01:39:43;;;;;;;25.45;4.53;;;10.20;99.90;;;;;;5053905;28;20041;-68
2021/01/05 01:42:12;;;;;;;26.30;5.22;;;10.20;99.90;;;;;;5053166;28;20049;-68
2021/01/05 01:44:40;;;;;;;20.90;3.75;;;10.10;99.90;;;;;;5053076;28;20048;-68
2021/01/05 01:47:42;;;;;;;23.55;4.70;;;10.10;99.90;;;;;;5053170;28;20049;-68
2021/01/05 01:50:13;;;;;;;32.65;5.05;;;10.10;99.90;;;;;;5053432;28;20032;-70
2021/01/05 01:52:51;;;;;;;34.13;4.95;;;10.00;99.90;;;;;;5053762;28;20381;-67
2021/01/05 01:55:51;;;;;;;28.90;4.82;;;10.00;99.90;;;;;;5053486;28;20032;-67
2021/01/05 01:58:36;;;;;;;22.20;3.60;;;9.90;99.90;;;;;;5053288;28;20032;-69
2021/01/05 02:01:22;;;;;;;27.63;4.53;;;9.80;99.90;;;;;;5053035;28;20044;-68
2021/01/05 02:03:52;;;;;;;24.02;3.90;;;9.70;99.90;;;;;;5052483;28;20154;-68
2021/01/05 02:06:27;;;;;;;30.48;4.68;;;9.60;99.90;;;;;;5053679;28;20031;-68
2021/01/05 02:09:16;;;;;;;27.55;5.30;;;9.50;99.90;;;;;;5055510;28;20025;-68
2021/01/05 02:12:21;;;;;;;28.02;4.90;;;9.40;99.90;;;;;;5072423;28;20040;-68
2021/01/05 02:15:03;;;;;;;26.60;4.82;;;9.30;99.90;;;;;;5030039;28;20049;-67
2021/01/05 02:17:48;;;;;;;35.65;5.43;;;9.30;99.90;;;;;;4994575;28;20134;-68
2021/01/05 02:20:48;;;;;;;39.95;5.07;;;9.20;99.90;;;;;;5020578;28;20509;-68
2021/01/05 02:23:36;;;;;;;22.00;4.40;;;9.10;99.90;;;;;;5027073;28;20037;-68
2021/01/05 02:26:06;;;;;;;37.50;6.80;;;9.00;99.90;;;;;;5018739;28;20038;-69
2021/01/05 02:28:47;;;;;;;38.13;5.90;;;9.00;99.90;;;;;;5030214;28;20025;-69
2021/01/05 02:31:34;;;;;;;30.70;5.68;;;9.00;99.90;;;;;;5026392;28;20041;-68
2021/01/05 02:34:06;;;;;;;25.67;4.90;;;8.90;99.90;;;;;;5012264;28;20041;-70
2021/01/05 02:36:57;;;;;;;30.77;4.75;;;8.90;99.90;;;;;;5023730;28;20037;-69
2021/01/05 02:39:30;;;;;;;29.77;6.45;;;9.00;99.90;;;;;;5022079;28;20057;-71
2021/01/05 02:42:40;;;;;;;27.33;5.15;;;9.00;99.90;;;;;;5010405;28;20149;-70
2021/01/05 02:45:27;;;;;;;39.22;7.28;;;9.00;99.90;;;;;;5021630;28;20038;-70
2021/01/05 02:48:23;;;;;;;25.45;4.82;;;9.00;99.90;;;;;;5022313;28;20096;-70
2021/01/05 02:51:28;;;;;;;23.83;6.00;;;9.00;99.90;;;;;;5038058;28;20037;-70
2021/01/05 02:54:18;;;;;;;25.05;4.07;;;9.00;99.90;;;;;;5031234;28;20910;-68
2021/01/05 02:57:18;;;;;;;22.67;4.15;;;9.10;99.90;;;;;;5030038;28;20040;-70
2021/01/05 03:00:01;;;;;;;23.95;3.72;;;9.10;99.90;;;;;;5031176;28;20056;-68
2021/01/05 03:02:49;;;;;;;24.05;4.18;;;9.20;99.90;;;;;;5029655;28;20434;-67
2021/01/05 03:05:16;;;;;;;26.15;4.53;;;9.20;99.90;;;;;;5029382;28;20045;-67
2021/01/05 03:07:47;;;;;;;21.50;4.55;;;9.20;99.90;;;;;;5029704;28;20056;-69
2021/01/05 03:10:42;;;;;;;23.63;3.70;;;9.30;99.90;;;;;;5018594;28;20041;-66
2021/01/05 03:13:17;;;;;;;21.83;3.70;;;9.30;99.90;;;;;;5048987;28;20033;-67
2021/01/05 03:15:59;;;;;;;28.15;5.35;;;9.40;99.90;;;;;;5038297;28;20053;-68
2021/01/05 03:18:26;;;;;;;23.17;4.38;;;9.40;99.90;;;;;;5047393;28;20108;-68
2021/01/05 03:21:01;;;;;;;24.70;5.65;;;9.40;99.90;;;;;;5048875;28;20493;-68
2021/01/05 03:23:31;;;;;;;21.88;3.75;;;9.40;99.90;;;;;;5048118;28;20432;-68
2021/01/05 03:26:04;;;;;;;21.35;3.80;;;9.40;99.90;;;;;;5047709;28;20048;-69
2021/01/05 03:28:31;;;;;;;17.38;3.92;;;9.40;99.90;;;;;;5042229;28;20033;-68
2021/01/05 03:31:11;;;;;;;27.45;4.45;;;9.30;99.90;;;;;;5054001;28;20044;-68
2021/01/05 03:33:38;;;;;;;24.05;4.13;;;9.30;99.90;;;;;;5071225;28;20468;-69
2021/01/05 03:36:06;;;;;;;20.15;4.18;;;9.20;99.90;;;;;;5054331;28;20457;-68
2021/01/05 03:38:33;;;;;;;23.27;4.40;;;9.10;99.90;;;;;;5050548;28;20404;-68
2021/01/05 03:41:00;;;;;;;28.55;5.32;;;9.00;99.90;;;;;;5050732;28;20878;-68
2021/01/05 03:43:27;;;;;;;18.80;4.43;;;8.90;99.90;;;;;;5051217;28;20507;-68
2021/01/05 03:45:54;;;;;;;20.70;5.10;;;8.90;99.90;;;;;;5070819;28;20025;-67
2021/01/05 03:48:21;;;;;;;15.88;4.20;;;8.90;99.90;;;;;;5068123;28;20023;-67
2021/01/05 03:50:48;;;;;;;23.23;3.58;;;8.80;99.90;;;;;;5071060;28;20035;-67
2021/01/05 03:53:15;;;;;;;25.45;4.78;;;8.80;99.90;;;;;;5068919;28;20384;-67
2021/01/05 03:55:41;;;;;;;21.55;4.20;;;8.70;99.90;;;;;;5050774;28;20454;-67
2021/01/05 03:58:09;;;;;;;25.30;3.40;;;8.70;99.90;;;;;;5060345;28;20481;-67
2021/01/05 04:00:36;;;;;;;20.25;3.35;;;8.60;99.90;;;;;;5070122;28;20032;-67
2021/01/05 04:03:03;;;;;;;26.55;3.65;;;8.60;99.90;;;;;;5067261;28;20634;-67
2021/01/05 04:05:33;;;;;;;18.67;3.85;;;8.50;99.90;;;;;;5055294;28;20036;-67
2021/01/05 04:08:00;;;;;;;24.98;4.03;;;8.40;99.90;;;;;;5075482;28;20025;-67
2021/01/05 04:10:27;;;;;;;33.50;6.70;;;8.30;99.90;;;;;;5072771;28;20036;-68
2021/01/05 04:12:54;;;;;;;25.05;5.45;;;8.30;99.90;;;;;;5074558;28;20035;-68
2021/01/05 04:15:27;;;;;;;21.70;3.47;;;8.20;99.90;;;;;;5074830;28;20020;-67
2021/01/05 04:17:56;;;;;;;25.23;4.18;;;8.20;99.90;;;;;;5057530;28;20504;-67
2021/01/05 04:20:24;;;;;;;24.75;4.35;;;8.20;99.90;;;;;;5056019;28;20068;-67
2021/01/05 04:22:51;;;;;;;34.70;4.70;;;8.20;99.90;;;;;;5054935;28;20036;-67
2021/01/05 04:25:20;;;;;;;34.08;7.53;;;8.20;99.90;;;;;;5057444;28;20028;-68
2021/01/05 04:27:48;;;;;;;30.85;5.20;;;8.20;99.90;;;;;;5074719;28;20040;-67
2021/01/05 04:30:24;;;;;;;35.05;6.40;;;8.30;99.90;;;;;;5072654;28;20390;-67
2021/01/05 04:32:52;;;;;;;32.22;5.85;;;8.40;99.90;;;;;;5074762;28;20036;-68
2021/01/05 04:35:21;;;;;;;36.13;6.68;;;8.40;99.90;;;;;;5060264;28;20025;-67
2021/01/05 04:37:48;;;;;;;30.63;5.20;;;8.50;99.90;;;;;;5072591;28;20044;-67
2021/01/05 04:40:43;;;;;;;32.85;5.40;;;8.50;99.90;;;;;;5073464;28;20473;-67
2021/01/05 04:43:28;;;;;;;21.92;4.13;;;8.60;99.90;;;;;;5062041;28;20047;-67
2021/01/05 04:46:06;;;;;;;23.67;5.47;;;8.60;99.90;;;;;;5064899;28;20036;-67
2021/01/05 04:48:41;;;;;;;32.63;5.25;;;8.70;99.90;;;;;;5065476;28;20040;-68
2021/01/05 04:51:23;;;;;;;25.58;5.20;;;8.70;99.90;;;;;;5054450;28;20025;-67
2021/01/05 04:53:58;;;;;;;21.60;4.55;;;8.70;99.90;;;;;;5055831;28;20025;-67
2021/01/05 04:56:43;;;;;;;24.02;5.20;;;8.70;99.90;;;;;;5057941;28;20041;-73
2021/01/05 04:59:13;;;;;;;27.08;5.22;;;8.80;99.90;;;;;;5055758;28;20033;-67
2021/01/05 05:01:46;;;;;;;31.52;5.35;;;8.80;99.90;;;;;;5053922;28;20067;-67
2021/01/05 05:04:35;;;;;;;33.35;6.32;;;8.80;99.90;;;;;;5054258;28;20025;-66
2021/01/05 05:07:27;;;;;;;30.58;5.30;;;8.80;99.90;;;;;;5054404;28;20037;-67
2021/01/05 05:10:07;;;;;;;28.70;5.03;;;8.70;99.90;;;;;;5057907;28;20497;-67
2021/01/05 05:13:16;;;;;;;31.75;5.60;;;8.70;99.90;;;;;;5052875;28;20037;-67
2021/01/05 05:15:49;;;;;;;31.77;5.15;;;8.60;99.90;;;;;;5031227;28;20048;-67
2021/01/05 05:18:43;;;;;;;23.77;4.88;;;8.50;99.90;;;;;;5027839;28;20048;-67
2021/01/05 05:21:28;;;;;;;31.17;6.22;;;8.40;99.90;;;;;;5012244;28;20060;-67
2021/01/05 05:23:57;;;;;;;23.00;5.22;;;8.40;99.90;;;;;;5022095;28;20433;-67
2021/01/05 05:27:02;;;;;;;20.05;4.93;;;8.30;99.90;;;;;;5031730;28;20064;-67
2021/01/05 05:30:01;;;;;;;31.30;5.82;;;8.20;99.90;;;;;;5029868;28;20029;-67
2021/01/05 05:32:37;;;;;;;26.33;6.07;;;8.20;99.90;;;;;;5031352;28;20040;-67
2021/01/05 05:35:04;;;;;;;26.42;4.65;;;8.10;99.90;;;;;;5012571;28;20030;-67
2021/01/05 05:38:00;;;;;;;20.63;5.25;;;8.10;99.90;;;;;;5011559;28;20052;-67
2021/01/05 05:41:05;;;;;;;23.55;4.53;;;8.10;99.90;;;;;;5011558;28;20064;-67
2021/01/05 05:43:56;;;;;;;23.92;5.28;;;8.10;99.90;;;;;;5015979;28;20041;-67
2021/01/05 05:46:37;;;;;;;22.25;4.43;;;8.10;99.90;;;;;;5019122;28;20046;-67
2021/01/05 05:49:30;;;;;;;35.97;3.95;;;8.00;99.90;;;;;;5031145;28;20497;-66
2021/01/05 05:52:01;;;;;;;29.38;5.90;;;8.10;99.90;;;;;;5043314;28;20037;-66
2021/01/05 05:54:28;;;;;;;23.02;4.90;;;8.00;99.90;;;;;;5060065;28;20035;-67
2021/01/05 05:56:58;;;;;;;29.13;7.35;;;8.00;99.90;;;;;;5062107;28;20048;-66
2021/01/05 05:59:34;;;;;;;26.15;5.68;;;7.90;99.90;;;;;;5059249;28;20032;-67
2021/01/05 06:02:02;;;;;;;27.98;5.82;;;7.90;99.90;;;;;;5073166;28;20425;-67
2021/01/05 06:04:33;;;;;;;21.90;4.85;;;7.90;99.90;;;;;;5066431;28;20025;-67
2021/01/05 06:07:00;;;;;;;;;;;7.90;99.90;;;;;;5061746;28;20408;-67
2021/01/05 06:09:27;;;;;;;22.83;5.50;;;7.90;99.90;;;;;;5069952;28;19915;-66
2021/01/05 06:11:55;;;;;;;25.98;5.10;;;7.80;99.90;;;;;;5053025;28;20135;-67
2021/01/05 06:14:22;;;;;;;20.17;3.72;;;7.80;99.90;;;;;;5053777;28;20037;-67
2021/01/05 06:16:49;;;;;;;32.25;4.28;;;7.80;99.90;;;;;;5071067;28;20496;-66
2021/01/05 06:19:16;;;;;;;23.80;4.68;;;7.80;99.90;;;;;;5072771;28;20382;-67
2021/01/05 06:21:43;;;;;;;26.55;3.95;;;7.80;99.90;;;;;;5070560;28;20052;-66
2021/01/05 06:24:11;;;;;;;25.10;4.38;;;7.80;99.90;;;;;;5072307;28;20040;-67
2021/01/05 06:26:37;;;;;;;21.90;3.72;;;7.70;99.90;;;;;;5071290;28;20035;-67
2021/01/05 06:29:04;;;;;;;20.63;4.88;;;7.70;99.90;;;;;;5033068;28;20033;-69
2021/01/05 06:31:31;;;;;;;26.70;5.80;;;7.60;99.90;;;;;;5034762;28;20478;-67
2021/01/05 06:33:58;;;;;;;21.02;3.78;;;7.60;99.90;;;;;;5072259;28;20322;-67
2021/01/05 06:36:25;;;;;;;22.60;3.80;;;7.60;99.90;;;;;;5072103;28;20473;-67
2021/01/05 06:38:52;;;;;;;19.83;4.85;;;7.60;99.90;;;;;;5070283;28;20404;-66
2021/01/05 06:41:19;;;;;;;27.10;5.45;;;7.60;99.90;;;;;;5072314;28;20039;-67
2021/01/05 06:43:46;;;;;;;27.00;5.07;;;7.50;99.90;;;;;;5071388;28;20025;-67
2021/01/05 06:46:13;;;;;;;25.23;3.95;;;7.60;99.90;;;;;;5070843;28;20032;-67
2021/01/05 06:48:39;;;;;;;22.02;4.05;;;7.50;99.90;;;;;;5070589;28;20032;-67
2021/01/05 06:51:07;;;;;;;19.73;3.92;;;7.40;99.90;;;;;;5071971;28;20033;-67
2021/01/05 06:53:34;;;;;;;21.63;4.03;;;7.40;99.90;;;;;;5065854;28;20040;-66
2021/01/05 06:56:01;;;;;;;17.48;3.47;;;7.40;99.90;;;;;;5051356;28;20033;-67
2021/01/05 06:58:27;;;;;;;22.30;3.22;;;7.40;99.90;;;;;;5052196;28;20055;-69
2021/01/05 07:00:54;;;;;;;17.70;4.25;;;7.40;99.90;;;;;;5060916;28;20412;-66
2021/01/05 07:03:21;;;;;;;21.70;3.83;;;7.40;99.90;;;;;;5051748;28;20039;-67
2021/01/05 07:05:48;;;;;;;33.72;5.38;;;7.30;99.90;;;;;;5050906;28;20468;-68
2021/01/05 07:08:15;;;;;;;17.30;3.90;;;7.30;99.90;;;;;;5051818;28;20024;-67
2021/01/05 07:10:46;;;;;;;28.65;4.28;;;7.30;99.90;;;;;;5051815;28;20043;-67
2021/01/05 07:13:13;;;;;;;26.27;3.72;;;7.30;99.90;;;;;;5051841;28;20029;-66
2021/01/05 07:15:40;;;;;;;21.08;4.25;;;7.40;99.90;;;;;;5052304;28;20029;-65
2021/01/05 07:18:09;;;;;;;16.63;3.67;;;7.30;99.90;;;;;;5051890;28;20025;-65
2021/01/05 07:20:36;;;;;;;19.55;3.92;;;7.30;99.90;;;;;;5051490;28;20033;-66
2021/01/05 07:23:03;;;;;;;25.95;3.67;;;7.20;99.90;;;;;;5052060;28;20052;-67
2021/01/05 07:25:30;;;;;;;29.42;5.03;;;7.20;99.90;;;;;;5051385;28;20660;-67
2021/01/05 07:27:57;;;;;;;18.35;3.47;;;7.20;99.90;;;;;;5051747;28;20033;-66
2021/01/05 07:30:24;;;;;;;20.52;3.35;;;7.10;99.90;;;;;;5054736;28;20028;-68
2021/01/05 07:32:51;;;;;;;24.05;3.58;;;7.10;99.90;;;;;;5058561;28;20059;-66
2021/01/05 07:35:18;;;;;;;20.27;4.45;;;7.10;99.90;;;;;;5067106;28;20473;-67
2021/01/05 07:37:45;;;;;;;20.50;3.80;;;7.10;99.90;;;;;;5067265;28;20488;-67
2021/01/05 07:40:15;;;;;;;23.27;3.25;;;7.00;99.90;;;;;;5051358;28;20044;-67
2021/01/05 07:42:42;;;;;;;20.35;3.33;;;7.10;99.90;;;;;;5056687;28;20028;-67
2021/01/05 07:45:18;;;;;;;22.73;3.95;;;7.00;99.90;;;;;;5071113;28;20052;-67
2021/01/05 07:47:45;;;;;;;21.05;3.83;;;7.00;99.90;;;;;;5058918;28;20380;-68
2021/01/05 07:50:22;;;;;;;20.08;3.22;;;7.00;99.90;;;;;;5051084;28;20036;-67
2021/01/05 07:52:49;;;;;;;24.98;3.63;;;6.90;99.90;;;;;;5035687;28;20025;-67
2021/01/05 07:55:24;;;;;;;17.83;3.72;;;6.90;99.90;;;;;;5069150;28;20021;-68
2021/01/05 07:57:52;;;;;;;18.35;3.58;;;6.90;99.90;;;;;;5049089;28;20033;-67
2021/01/05 08:00:24;;;;;;;22.15;4.47;;;6.90;99.90;;;;;;5063033;28;20020;-67
2021/01/05 08:02:53;;;;;;;20.33;4.40;;;6.80;99.90;;;;;;5056086;28;20041;-66
2021/01/05 08:05:23;;;;;;;21.30;3.80;;;6.90;99.90;;;;;;5061010;28;20021;-67
2021/01/05 08:07:51;;;;;;;22.65;3.80;;;6.80;99.90;;;;;;5052155;28;20041;-67
2021/01/05 08:10:37;;;;;;;23.73;3.83;;;6.90;99.90;;;;;;5068471;28;20041;-67
2021/01/05 08:13:08;;;;;;;23.33;4.60;;;6.90;99.90;;;;;;5065106;28;20028;-67
2021/01/05 08:15:35;;;;;;;23.25;4.47;;;6.90;99.90;;;;;;5068757;28;20488;-68
2021/01/05 08:18:06;;;;;;;21.23;4.80;;;6.80;99.90;;;;;;5059170;28;20037;-67
2021/01/05 08:20:34;;;;;;;29.27;4.78;;;6.80;99.90;;;;;;5051038;28;20380;-67
2021/01/05 08:23:03;;;;;;;22.88;3.83;;;6.90;99.90;;;;;;5050911;28;20397;-68
2021/01/05 08:25:30;;;;;;;30.15;4.07;;;6.90;99.90;;;;;;5052113;28;20032;-67
2021/01/05 08:27:58;;;;;;;26.42;4.30;;;6.90;99.90;;;;;;5051192;28;20366;-66
2021/01/05 08:30:33;;;;;;;27.50;4.90;;;6.80;99.90;;;;;;5063585;28;20049;-66
2021/01/05 08:33:06;;;;;;;28.13;5.38;;;6.90;99.90;;;;;;5056148;28;20484;-67
2021/01/05 08:35:33;;;;;;;30.52;4.75;;;6.90;99.90;;;;;;5054279;28;20048;-66
2021/01/05 08:38:01;;;;;;;27.67;5.18;;;6.80;99.90;;;;;;5050564;28;20048;-66
2021/01/05 08:40:31;;;;;;;30.23;5.00;;;6.90;99.90;;;;;;5050622;28;20021;-66
2021/01/05 08:43:00;;;;;;;35.65;5.43;;;6.90;99.90;;;;;;5050761;28;20037;-66
2021/01/05 08:45:28;;;;;;;28.17;5.38;;;6.80;99.90;;;;;;5069412;28;20029;-66
2021/01/05 08:47:55;;;;;;;29.85;5.00;;;6.90;99.90;;;;;;5069729;28;20043;-68
2021/01/05 08:50:28;;;;;;;31.85;6.35;;;6.90;99.90;;;;;;5070131;28;20016;-66
2021/01/05 08:53:01;;;;;;;35.85;6.35;;;6.90;99.90;;;;;;5054164;28;20453;-66
2021/01/05 08:55:28;;;;;;;39.47;6.80;;;6.90;99.90;;;;;;5054603;28;20032;-65
2021/01/05 08:57:57;;;;;;;47.90;6.88;;;6.90;99.90;;;;;;5053858;28;20485;-66
2021/01/05 09:00:24;;;;;;;60.90;9.07;;;7.00;99.90;;;;;;5056484;28;20457;-70
2021/01/05 09:02:51;;;;;;;60.05;7.32;;;7.00;99.90;;;;;;5057466;28;20040;-65
2021/01/05 09:05:18;;;;;;;71.60;8.25;;;7.10;99.90;;;;;;5054000;28;20040;-65
2021/01/05 09:07:45;;;;;;;58.78;8.25;;;7.10;99.90;;;;;;5054103;28;20029;-65
2021/01/05 09:10:23;;;;;;;91.63;7.78;;;7.10;99.90;;;;;;5054566;28;20055;-65
2021/01/05 09:12:50;;;;;;;70.32;7.05;;;7.20;99.90;;;;;;5054492;28;20029;-65
2021/01/05 09:15:20;;;;;;;197.35;12.65;;;7.30;99.90;;;;;;5054250;28;20040;-64
2021/01/05 09:17:49;;;;;;;110.13;8.80;;;7.30;99.90;;;;;;5053591;28;20509;-65
2021/01/05 09:20:21;;;;;;;77.78;7.78;;;7.30;99.90;;;;;;5053682;28;20369;-65
2021/01/05 09:22:48;;;;;;;104.15;8.40;;;7.40;99.90;;;;;;5052559;28;20045;-65
2021/01/05 09:25:16;;;;;;;94.82;7.13;;;7.40;99.90;;;;;;5053970;28;20021;-66
2021/01/05 09:27:43;;;;;;;75.60;6.55;;;7.40;99.90;;;;;;5067763;28;20040;-65
2021/01/05 09:30:15;;;;;;;37.47;5.53;;;7.40;99.90;;;;;;5070499;28;20028;-65
2021/01/05 09:32:42;;;;;;;53.22;7.05;;;7.30;99.90;;;;;;5052966;28;20048;-65
2021/01/05 09:35:10;;;;;;;29.60;6.07;;;7.30;99.90;;;;;;5058081;28;20036;-67
2021/01/05 09:37:45;;;;;;;35.30;6.45;;;7.30;99.90;;;;;;5053338;28;20386;-66
2021/01/05 09:40:14;;;;;;;30.63;6.43;;;7.30;99.90;;;;;;5053933;28;20041;-67
2021/01/05 09:42:41;;;;;;;29.70;6.75;;;7.20;99.90;;;;;;5055747;28;20040;-67
2021/01/05 09:45:12;;;;;;;38.42;6.18;;;7.20;99.90;;;;;;5071884;28;20029;-66
2021/01/05 09:47:39;;;;;;;30.70;6.55;;;7.10;99.90;;;;;;5069678;28;20063;-67
2021/01/05 09:50:07;;;;;;;28.23;5.95;;;7.10;99.90;;;;;;5055909;28;20028;-67
2021/01/05 09:52:35;;;;;;;22.30;5.03;;;7.10;99.90;;;;;;5053357;28;20028;-67
2021/01/05 09:55:07;;;;;;;35.03;5.95;;;7.10;99.90;;;;;;5053335;28;20044;-67
2021/01/05 09:57:33;;;;;;;;;;;7.00;99.90;;;;;;5053632;28;20036;-65
2021/01/05 10:00:00;;;;;;;35.55;6.10;;;7.00;99.90;;;;;;5060341;28;19909;-66
2021/01/05 10:02:27;;;;;;;33.60;5.88;;;6.90;99.90;;;;;;5052771;28;20044;-65
2021/01/05 10:04:54;;;;;;;26.08;7.30;;;6.80;99.90;;;;;;5053895;28;20498;-65
2021/01/05 10:07:21;;;;;;;29.02;6.13;;;6.80;99.90;;;;;;5070467;28;20028;-66
2021/01/05 10:09:48;;;;;;;28.10;5.72;;;6.80;99.90;;;;;;5070881;28;20024;-66
2021/01/05 10:12:15;;;;;;;31.02;6.60;;;6.80;99.90;;;;;;5052673;28;20051;-68
2021/01/05 10:14:41;;;;;;;24.88;5.18;;;6.80;99.90;;;;;;5054241;28;20512;-66
2021/01/05 10:17:09;;;;;;;26.35;4.57;;;6.70;99.90;;;;;;5070473;28;20033;-66
2021/01/05 10:19:35;;;;;;;21.98;3.40;;;6.70;99.90;;;;;;5070952;28;20017;-66
2021/01/05 10:22:04;;;;;;;19.05;3.75;;;6.70;99.90;;;;;;5064725;28;20036;-65
2021/01/05 10:24:31;;;;;;;23.23;4.28;;;6.70;99.90;;;;;;5053072;28;20647;-66
2021/01/05 10:26:58;;;;;;;17.38;2.88;;;6.70;99.90;;;;;;5053491;28;20021;-65
2021/01/05 10:29:25;;;;;;;21.23;2.95;;;6.70;99.90;;;;;;5058652;28;20029;-65
2021/01/05 10:31:53;;;;;;;27.85;4.07;;;6.60;99.90;;;;;;5053154;28;20029;-66
2021/01/05 10:34:22;;;;;;;25.95;4.55;;;6.70;99.90;;;;;;5058765;28;20028;-66
2021/01/05 10:36:54;;;;;;;31.33;4.57;;;6.80;99.90;;;;;;5070727;28;20033;-67
2021/01/05 10:39:21;;;;;;;24.88;5.00;;;6.80;99.90;;;;;;5072064;28;20079;-67
2021/01/05 10:41:48;;;;;;;29.77;4.03;;;6.90;99.90;;;;;;5057965;28;20044;-65
2021/01/05 10:44:18;;;;;;;31.65;5.05;;;6.90;99.90;;;;;;5052125;28;20037;-66
2021/01/05 10:46:45;;;;;;;29.08;4.20;;;6.90;99.90;;;;;;5069454;28;20429;-65
2021/01/05 10:49:13;;;;;;;22.30;3.55;;;6.90;99.90;;;;;;5053172;28;20036;-65
2021/01/05 10:51:51;;;;;;;20.95;4.25;;;7.00;99.90;;;;;;5053284;28;20421;-64
2021/01/05 10:54:20;;;;;;;29.50;4.80;;;6.90;99.90;;;;;;5052271;28;20029;-65
2021/01/05 10:56:54;;;;;;;28.67;4.03;;;6.90;99.90;;;;;;5068896;28;20028;-65
2021/01/05 10:59:20;;;;;;;27.65;4.30;;;6.90;99.90;;;;;;5070051;28;20380;-65
2021/01/05 11:01:47;;;;;;;23.15;3.00;;;6.90;99.90;;;;;;5068912;28;20035;-65
2021/01/05 11:04:14;;;;;;;18.75;2.80;;;6.80;99.90;;;;;;5052316;28;20056;-65
2021/01/05 11:06:53;;;;;;;33.35;4.32;;;6.80;99.90;;;;;;5055673;28;20032;-65
2021/01/05 11:09:21;;;;;;;25.15;3.92;;;6.80;99.90;;;;;;5062635;28;20021;-65
2021/01/05 11:11:54;;;;;;;26.13;3.60;;;6.80;99.90;;;;;;5050810;28;20303;-65
2021/01/05 11:14:21;;;;;;;30.15;5.05;;;6.70;99.90;;;;;;5052543;28;20037;-66
2021/01/05 11:16:49;;;;;;;20.42;3.20;;;6.70;99.90;;;;;;5064119;28;20035;-66
2021/01/05 11:19:16;;;;;;;15.90;2.65;;;6.70;99.90;;;;;;5069664;28;20033;-65
2021/01/05 11:21:59;;;;;;;25.13;3.75;;;6.70;99.90;;;;;;5071603;28;20016;-66
2021/01/05 11:24:27;;;;;;;23.60;2.92;;;6.60;99.90;;;;;;5069675;28;20040;-66
2021/01/05 11:26:55;;;;;;;22.40;3.15;;;6.60;99.90;;;;;;5069788;28;20040;-65
2021/01/05 11:29:26;;;;;;;21.20;3.92;;;6.50;99.90;;;;;;5056784;28;20040;-66
2021/01/05 11:31:58;;;;;;;20.10;2.67;;;6.50;99.90;;;;;;5053192;28;20041;-66
2021/01/05 11:34:26;;;;;;;21.00;3.80;;;6.50;99.90;;;;;;5052511;28;20416;-65
2021/01/05 11:36:53;;;;;;;14.80;3.17;;;6.50;99.90;;;;;;5067192;28;20029;-65
2021/01/05 11:39:21;;;;;;;23.17;3.55;;;6.40;99.90;;;;;;5051276;28;20049;-67
2021/01/05 11:41:50;;;;;;;20.30;3.20;;;6.40;99.90;;;;;;5052509;28;20036;-66
2021/01/05 11:44:17;;;;;;;17.90;2.80;;;6.40;99.90;;;;;;5057211;28;20063;-66
2021/01/05 11:46:44;;;;;;;23.73;2.55;;;6.30;99.90;;;;;;5068254;28;20376;-65
2021/01/05 11:49:11;;;;;;;24.58;5.05;;;6.30;99.90;;;;;;5050894;28;20500;-66
2021/01/05 11:51:39;;;;;;;24.40;3.88;;;6.30;99.90;;;;;;5053782;28;20033;-66
2021/01/05 11:54:06;;;;;;;19.30;3.65;;;6.30;99.90;;;;;;5051276;28;20092;-65
2021/01/05 11:56:34;;;;;;;20.55;3.70;;;6.30;99.90;;;;;;5064675;28;20028;-65
2021/01/05 11:59:02;;;;;;;24.27;4.72;;;6.30;99.90;;;;;;5073104;28;20456;-65
2021/01/05 12:01:41;;;;;;;19.25;3.00;;;6.30;99.90;;;;;;5057546;28;20033;-70
2021/01/05 12:04:10;;;;;;;21.55;4.38;;;6.30;99.90;;;;;;5050691;28;20045;-65
2021/01/05 12:06:38;;;;;;;23.67;3.63;;;6.20;99.90;;;;;;5051986;28;20482;-65
2021/01/05 12:09:08;;;;;;;19.90;4.22;;;6.30;99.90;;;;;;5057794;28;20091;-65
2021/01/05 12:11:36;;;;;;;24.95;4.35;;;6.20;99.90;;;;;;5070878;28;20036;-65
2021/01/05 12:14:05;;;;;;;23.67;4.10;;;6.30;99.90;;;;;;5069390;28;20025;-65
2021/01/05 12:16:38;;;;;;;25.90;4.03;;;6.40;99.90;;;;;;5068679;28;20035;-66
2021/01/05 12:19:08;;;;;;;22.55;5.07;;;6.30;99.90;;;;;;5070254;28;20020;-66
2021/01/05 12:21:40;;;;;;;26.90;6.22;;;6.50;99.90;;;;;;5070108;28;20133;-65
2021/01/05 12:24:19;;;;;;;31.83;5.47;;;6.50;99.90;;;;;;5061833;28;20044;-67
2021/01/05 12:26:46;;;;;;;28.45;4.65;;;6.50;99.90;;;;;;5060943;28;20025;-67
2021/01/05 12:29:20;;;;;;;31.17;7.18;;;6.50;99.90;;;;;;5056007;28;20354;-68
2021/01/05 12:32:00;;;;;;;25.83;5.55;;;6.50;99.90;;;;;;5073159;28;20024;-66
2021/01/05 12:34:30;;;;;;;23.88;5.68;;;6.50;99.90;;;;;;5057423;28;20033;-66
2021/01/05 12:37:03;;;;;;;24.10;4.20;;;6.60;99.90;;;;;;5055836;28;20025;-66
2021/01/05 12:39:32;;;;;;;17.58;3.97;;;6.70;99.90;;;;;;5072090;28;20385;-66
2021/01/05 12:42:06;;;;;;;20.25;3.88;;;6.70;99.90;;;;;;5054471;28;20048;-66
2021/01/05 12:44:33;;;;;;;19.80;3.20;;;6.70;99.90;;;;;;5055666;28;20033;-66
2021/01/05 12:47:00;;;;;;;24.30;2.85;;;6.70;99.90;;;;;;5054910;28;20445;-66
2021/01/05 12:49:26;;;;;;;21.40;3.33;;;6.60;99.90;;;;;;5055243;28;20044;-66
2021/01/05 12:51:53;;;;;;;21.52;2.92;;;6.70;99.90;;;;;;5054376;28;20022;-66
2021/01/05 12:54:25;;;;;;;18.35;2.10;;;6.70;99.90;;;;;;5073332;28;20043;-66
2021/01/05 12:56:55;;;;;;;18.67;2.67;;;6.70;99.90;;;;;;5071848;28;20028;-68
2021/01/05 12:59:22;;;;;;;20.17;2.75;;;6.70;99.90;;;;;;5064502;28;20028;-66
2021/01/05 13:02:05;;;;;;;19.20;2.60;;;6.80;99.90;;;;;;5067762;28;20507;-66
2021/01/05 13:04:32;;;;;;;17.15;2.83;;;6.70;99.90;;;;;;5073759;28;20032;-66
2021/01/05 13:07:00;;;;;;;18.73;2.92;;;6.70;99.90;;;;;;5056841;28;20090;-66
2021/01/05 13:09:28;;;;;;;14.95;2.40;;;6.60;99.90;;;;;;5054921;28;20045;-67